sensor_id;sensor_type;location;lat;lon;timestamp;pressure;altitude;pressure_sealevel;temperature;humidity
25430;BME280;13360;48.152;-1.788;2023-04-07T00:00:46;101983.53;;;10.68;100.00
25430;BME280;13360;48.152;-1.788;2023-04-07T00:03:12;101984.06;;;10.65;100.00
25430;BME280;13360;48.152;-1.788;2023-04-07T00:05:37;101980.75;;;10.63;100.00
25430;BME280;13360;48.152;-1.788;2023-04-07T00:08:02;101972.69;;;10.61;100.00
25430;BME280;13360;48.152;-1.788;2023-04-07T00:10:28;101966.03;;;10.57;100.00
25430;BME280;13360;48.152;-1.788;2023-04-07T00:12:53;101960.22;;;10.54;100.00
25430;BME280;13360;48.152;-1.788;2023-04-07T00:15:18;101950.28;;;10.53;100.00
25430;BME280;13360;48.152;-1.788;2023-04-07T00:17:43;101962.44;;;10.52;100.00
25430;BME280;13360;48.152;-1.788;2023-04-07T00:20:09;101954.41;;;10.50;100.00
25430;BME280;13360;48.152;-1.788;2023-04-07T00:22:34;101955.25;;;10.51;100.00
25430;BME280;13360;48.152;-1.788;2023-04-07T00:25:00;101959.09;;;10.50;100.00
25430;BME280;13360;48.152;-1.788;2023-04-07T00:27:25;101949.41;;;10.47;100.00
25430;BME280;13360;48.152;-1.788;2023-04-07T00:29:50;101939.75;;;10.45;100.00
25430;BME280;13360;48.152;-1.788;2023-04-07T00:32:15;101951.06;;;10.43;100.00
25430;BME280;13360;48.152;-1.788;2023-04-07T00:34:41;101937.25;;;10.43;100.00
25430;BME280;13360;48.152;-1.788;2023-04-07T00:37:06;101923.13;;;10.39;100.00
25430;BME280;13360;48.152;-1.788;2023-04-07T00:39:31;101917.03;;;10.37;100.00
25430;BME280;13360;48.152;-1.788;2023-04-07T00:41:57;101913.13;;;10.33;100.00
25430;BME280;13360;48.152;-1.788;2023-04-07T00:44:22;101900.69;;;10.31;100.00
25430;BME280;13360;48.152;-1.788;2023-04-07T00:46:47;101902.63;;;10.30;100.00
25430;BME280;13360;48.152;-1.788;2023-04-07T00:49:13;101895.72;;;10.28;100.00
25430;BME280;13360;48.152;-1.788;2023-04-07T00:51:39;101889.91;;;10.24;100.00
25430;BME280;13360;48.152;-1.788;2023-04-07T00:54:05;101894.84;;;10.22;100.00
25430;BME280;13360;48.152;-1.788;2023-04-07T00:56:30;101897.34;;;10.24;100.00
25430;BME280;13360;48.152;-1.788;2023-04-07T00:58:56;101893.19;;;10.21;100.00
25430;BME280;13360;48.152;-1.788;2023-04-07T01:01:22;101888.97;;;10.19;100.00
25430;BME280;13360;48.152;-1.788;2023-04-07T01:03:51;101893.09;;;10.16;100.00
25430;BME280;13360;48.152;-1.788;2023-04-07T01:06:17;101897.53;;;10.17;100.00
25430;BME280;13360;48.152;-1.788;2023-04-07T01:08:52;101898.06;;;10.14;100.00
25430;BME280;13360;48.152;-1.788;2023-04-07T01:13:49;101889.19;;;10.07;100.00
25430;BME280;13360;48.152;-1.788;2023-04-07T01:19:13;101883.59;;;9.97;100.00
25430;BME280;13360;48.152;-1.788;2023-04-07T01:21:39;101885.22;;;9.93;100.00
25430;BME280;13360;48.152;-1.788;2023-04-07T01:24:17;101879.13;;;9.91;100.00
25430;BME280;13360;48.152;-1.788;2023-04-07T01:26:43;101879.41;;;9.89;100.00
25430;BME280;13360;48.152;-1.788;2023-04-07T01:31:59;101872.19;;;9.83;100.00
25430;BME280;13360;48.152;-1.788;2023-04-07T01:34:25;101874.66;;;9.80;100.00
25430;BME280;13360;48.152;-1.788;2023-04-07T01:36:51;101880.66;;;9.76;100.00
25430;BME280;13360;48.152;-1.788;2023-04-07T01:39:17;101873.47;;;9.75;100.00
25430;BME280;13360;48.152;-1.788;2023-04-07T01:41:42;101865.75;;;9.72;100.00
25430;BME280;13360;48.152;-1.788;2023-04-07T01:44:08;101864.59;;;9.68;100.00
25430;BME280;13360;48.152;-1.788;2023-04-07T01:46:34;101868.47;;;9.67;100.00
25430;BME280;13360;48.152;-1.788;2023-04-07T01:48:59;101859.06;;;9.63;100.00
25430;BME280;13360;48.152;-1.788;2023-04-07T01:51:25;101867.03;;;9.60;100.00
25430;BME280;13360;48.152;-1.788;2023-04-07T01:53:52;101871.13;;;9.57;100.00
25430;BME280;13360;48.152;-1.788;2023-04-07T01:56:18;101869.47;;;9.56;100.00
25430;BME280;13360;48.152;-1.788;2023-04-07T01:58:43;101880.22;;;9.58;100.00
25430;BME280;13360;48.152;-1.788;2023-04-07T02:01:08;101875.81;;;9.57;100.00
25430;BME280;13360;48.152;-1.788;2023-04-07T02:06:06;101878.25;;;9.53;100.00
25430;BME280;13360;48.152;-1.788;2023-04-07T02:08:32;101881.03;;;9.53;100.00
25430;BME280;13360;48.152;-1.788;2023-04-07T02:10:59;101868.91;;;9.54;100.00
25430;BME280;13360;48.152;-1.788;2023-04-07T02:13:27;101867.22;;;9.53;100.00
25430;BME280;13360;48.152;-1.788;2023-04-07T02:15:53;101876.03;;;9.50;100.00
25430;BME280;13360;48.152;-1.788;2023-04-07T02:18:20;101878.22;;;9.48;100.00
25430;BME280;13360;48.152;-1.788;2023-04-07T02:20:46;101873.81;;;9.47;100.00
25430;BME280;13360;48.152;-1.788;2023-04-07T02:23:12;101874.91;;;9.46;100.00
25430;BME280;13360;48.152;-1.788;2023-04-07T02:25:37;101871.53;;;9.39;100.00
25430;BME280;13360;48.152;-1.788;2023-04-07T02:28:03;101871.78;;;9.37;100.00
25430;BME280;13360;48.152;-1.788;2023-04-07T02:30:30;101868.69;;;9.34;100.00
25430;BME280;13360;48.152;-1.788;2023-04-07T02:32:55;101875.31;;;9.33;100.00
25430;BME280;13360;48.152;-1.788;2023-04-07T02:35:21;101874.75;;;9.31;100.00
25430;BME280;13360;48.152;-1.788;2023-04-07T02:37:46;101868.09;;;9.27;100.00
25430;BME280;13360;48.152;-1.788;2023-04-07T02:40:12;101869.19;;;9.26;100.00
25430;BME280;13360;48.152;-1.788;2023-04-07T02:42:37;101868.63;;;9.24;100.00
25430;BME280;13360;48.152;-1.788;2023-04-07T02:45:03;101865.56;;;9.20;100.00
25430;BME280;13360;48.152;-1.788;2023-04-07T02:47:28;101855.28;;;9.15;100.00
25430;BME280;13360;48.152;-1.788;2023-04-07T02:49:53;101862.50;;;9.16;100.00
25430;BME280;13360;48.152;-1.788;2023-04-07T02:52:18;101856.13;;;9.16;100.00
25430;BME280;13360;48.152;-1.788;2023-04-07T02:54:43;101850.88;;;9.14;100.00
25430;BME280;13360;48.152;-1.788;2023-04-07T02:57:09;101848.94;;;9.15;100.00
25430;BME280;13360;48.152;-1.788;2023-04-07T02:59:34;101845.34;;;9.14;100.00
25430;BME280;13360;48.152;-1.788;2023-04-07T03:01:59;101844.78;;;9.12;100.00
25430;BME280;13360;48.152;-1.788;2023-04-07T03:04:25;101846.97;;;9.10;100.00
25430;BME280;13360;48.152;-1.788;2023-04-07T03:06:50;101837.31;;;9.08;100.00
25430;BME280;13360;48.152;-1.788;2023-04-07T03:09:15;101843.34;;;9.05;100.00
25430;BME280;13360;48.152;-1.788;2023-04-07T03:11:41;101847.97;;;8.99;100.00
25430;BME280;13360;48.152;-1.788;2023-04-07T03:14:06;101851.81;;;8.98;100.00
25430;BME280;13360;48.152;-1.788;2023-04-07T03:16:32;101849.06;;;8.98;100.00
25430;BME280;13360;48.152;-1.788;2023-04-07T03:18:57;101845.47;;;8.98;100.00
25430;BME280;13360;48.152;-1.788;2023-04-07T03:21:22;101843.22;;;8.95;100.00
25430;BME280;13360;48.152;-1.788;2023-04-07T03:23:47;101839.06;;;8.92;100.00
25430;BME280;13360;48.152;-1.788;2023-04-07T03:26:13;101837.97;;;8.93;100.00
25430;BME280;13360;48.152;-1.788;2023-04-07T03:28:38;101836.88;;;8.94;100.00
25430;BME280;13360;48.152;-1.788;2023-04-07T03:31:03;101828.28;;;8.91;100.00
25430;BME280;13360;48.152;-1.788;2023-04-07T03:33:28;101833.25;;;8.89;100.00
25430;BME280;13360;48.152;-1.788;2023-04-07T03:35:54;101836.25;;;8.87;100.00
25430;BME280;13360;48.152;-1.788;2023-04-07T03:38:19;101837.34;;;8.86;100.00
25430;BME280;13360;48.152;-1.788;2023-04-07T03:40:45;101837.28;;;8.81;100.00
25430;BME280;13360;48.152;-1.788;2023-04-07T03:43:10;101820.47;;;8.77;100.00
25430;BME280;13360;48.152;-1.788;2023-04-07T03:45:39;101826.22;;;8.76;100.00
25430;BME280;13360;48.152;-1.788;2023-04-07T03:48:04;101821.81;;;8.75;100.00
25430;BME280;13360;48.152;-1.788;2023-04-07T03:50:29;101817.06;;;8.70;100.00
25430;BME280;13360;48.152;-1.788;2023-04-07T03:52:55;101812.91;;;8.68;100.00
25430;BME280;13360;48.152;-1.788;2023-04-07T03:55:20;101817.81;;;8.66;100.00
25430;BME280;13360;48.152;-1.788;2023-04-07T03:57:46;101828.00;;;8.65;100.00
25430;BME280;13360;48.152;-1.788;2023-04-07T04:00:11;101828.31;;;8.69;100.00
25430;BME280;13360;48.152;-1.788;2023-04-07T04:02:37;101828.06;;;8.70;100.00
25430;BME280;13360;48.152;-1.788;2023-04-07T04:05:02;101832.47;;;8.71;100.00
25430;BME280;13360;48.152;-1.788;2023-04-07T04:07:28;101824.22;;;8.71;100.00
25430;BME280;13360;48.152;-1.788;2023-04-07T04:09:53;101816.47;;;8.68;100.00
25430;BME280;13360;48.152;-1.788;2023-04-07T04:12:18;101811.81;;;8.69;100.00
25430;BME280;13360;48.152;-1.788;2023-04-07T04:14:43;101810.41;;;8.66;100.00
25430;BME280;13360;48.152;-1.788;2023-04-07T04:17:09;101809.81;;;8.64;100.00
25430;BME280;13360;48.152;-1.788;2023-04-07T04:19:34;101798.75;;;8.59;100.00
25430;BME280;13360;48.152;-1.788;2023-04-07T04:22:00;101793.19;;;8.54;100.00
25430;BME280;13360;48.152;-1.788;2023-04-07T04:24:25;101797.34;;;8.57;100.00
25430;BME280;13360;48.152;-1.788;2023-04-07T04:26:50;101799.28;;;8.56;100.00
25430;BME280;13360;48.152;-1.788;2023-04-07T04:29:15;101792.34;;;8.53;100.00
25430;BME280;13360;48.152;-1.788;2023-04-07T04:31:41;101783.03;;;8.54;100.00
25430;BME280;13360;48.152;-1.788;2023-04-07T04:34:06;101790.66;;;8.52;100.00
25430;BME280;13360;48.152;-1.788;2023-04-07T04:36:31;101783.75;;;8.50;100.00
25430;BME280;13360;48.152;-1.788;2023-04-07T04:38:57;101789.53;;;8.48;100.00
25430;BME280;13360;48.152;-1.788;2023-04-07T04:41:22;101787.03;;;8.47;100.00
25430;BME280;13360;48.152;-1.788;2023-04-07T04:43:47;101787.81;;;8.42;100.00
25430;BME280;13360;48.152;-1.788;2023-04-07T04:46:12;101784.75;;;8.39;100.00
25430;BME280;13360;48.152;-1.788;2023-04-07T04:48:38;101787.75;;;8.37;100.00
25430;BME280;13360;48.152;-1.788;2023-04-07T04:51:03;101791.88;;;8.35;100.00
25430;BME280;13360;48.152;-1.788;2023-04-07T04:53:28;101794.84;;;8.33;100.00
25430;BME280;13360;48.152;-1.788;2023-04-07T04:55:53;101799.75;;;8.31;100.00
25430;BME280;13360;48.152;-1.788;2023-04-07T04:58:20;101792.84;;;8.29;100.00
25430;BME280;13360;48.152;-1.788;2023-04-07T05:00:45;101795.31;;;8.30;100.00
25430;BME280;13360;48.152;-1.788;2023-04-07T05:03:11;101787.59;;;8.27;100.00
25430;BME280;13360;48.152;-1.788;2023-04-07T05:05:36;101794.19;;;8.26;100.00
25430;BME280;13360;48.152;-1.788;2023-04-07T05:08:01;101795.84;;;8.27;100.00
25430;BME280;13360;48.152;-1.788;2023-04-07T05:10:26;101805.50;;;8.30;100.00
25430;BME280;13360;48.152;-1.788;2023-04-07T05:12:52;101786.22;;;8.30;100.00
25430;BME280;13360;48.152;-1.788;2023-04-07T05:15:17;101787.63;;;8.32;100.00
25430;BME280;13360;48.152;-1.788;2023-04-07T05:17:42;101777.72;;;8.31;100.00
25430;BME280;13360;48.152;-1.788;2023-04-07T05:20:08;101778.81;;;8.30;100.00
25430;BME280;13360;48.152;-1.788;2023-04-07T05:22:33;101776.63;;;8.32;100.00
25430;BME280;13360;48.152;-1.788;2023-04-07T05:24:59;101785.41;;;8.29;100.00
25430;BME280;13360;48.152;-1.788;2023-04-07T05:27:24;101786.22;;;8.30;100.00
25430;BME280;13360;48.152;-1.788;2023-04-07T05:29:49;101791.44;;;8.26;100.00
25430;BME280;13360;48.152;-1.788;2023-04-07T05:32:14;101787.53;;;8.22;100.00
25430;BME280;13360;48.152;-1.788;2023-04-07T05:34:41;101798.28;;;8.23;100.00
25430;BME280;13360;48.152;-1.788;2023-04-07T05:37:06;101802.38;;;8.21;100.00
25430;BME280;13360;48.152;-1.788;2023-04-07T05:39:31;101801.81;;;8.19;100.00
25430;BME280;13360;48.152;-1.788;2023-04-07T05:41:57;101812.81;;;8.19;100.00
25430;BME280;13360;48.152;-1.788;2023-04-07T05:44:22;101814.72;;;8.18;100.00
25430;BME280;13360;48.152;-1.788;2023-04-07T05:46:47;101827.97;;;8.21;100.00
25430;BME280;13360;48.152;-1.788;2023-04-07T05:49:13;101828.28;;;8.25;100.00
25430;BME280;13360;48.152;-1.788;2023-04-07T05:51:38;101833.53;;;8.26;100.00
25430;BME280;13360;48.152;-1.788;2023-04-07T05:54:03;101838.22;;;8.26;100.00
25430;BME280;13360;48.152;-1.788;2023-04-07T05:56:28;101832.72;;;8.26;100.00
25430;BME280;13360;48.152;-1.788;2023-04-07T05:58:53;101835.72;;;8.24;100.00
25430;BME280;13360;48.152;-1.788;2023-04-07T06:01:19;101850.31;;;8.25;100.00
25430;BME280;13360;48.152;-1.788;2023-04-07T06:03:44;101863.25;;;8.24;100.00
25430;BME280;13360;48.152;-1.788;2023-04-07T06:06:09;101870.75;;;8.29;100.00
25430;BME280;13360;48.152;-1.788;2023-04-07T06:08:34;101872.41;;;8.30;100.00
25430;BME280;13360;48.152;-1.788;2023-04-07T06:11:00;101875.66;;;8.27;100.00
25430;BME280;13360;48.152;-1.788;2023-04-07T06:13:25;101889.44;;;8.27;100.00
25430;BME280;13360;48.152;-1.788;2023-04-07T06:15:51;101901.84;;;8.30;100.00
25430;BME280;13360;48.152;-1.788;2023-04-07T06:18:16;101907.50;;;8.35;100.00
25430;BME280;13360;48.152;-1.788;2023-04-07T06:20:41;101910.56;;;8.38;100.00
25430;BME280;13360;48.152;-1.788;2023-04-07T06:23:06;101915.03;;;8.44;100.00
25430;BME280;13360;48.152;-1.788;2023-04-07T06:25:32;101922.22;;;8.45;100.00
25430;BME280;13360;48.152;-1.788;2023-04-07T06:27:57;101934.88;;;8.46;100.00
25430;BME280;13360;48.152;-1.788;2023-04-07T06:30:22;101947.06;;;8.50;100.00
25430;BME280;13360;48.152;-1.788;2023-04-07T06:32:47;101966.91;;;8.52;100.00
25430;BME280;13360;48.152;-1.788;2023-04-07T06:35:13;101973.25;;;8.53;100.00
25430;BME280;13360;48.152;-1.788;2023-04-07T06:37:38;101987.13;;;8.58;100.00
25430;BME280;13360;48.152;-1.788;2023-04-07T06:40:04;101992.38;;;8.60;100.00
25430;BME280;13360;48.152;-1.788;2023-04-07T06:42:29;101987.38;;;8.57;100.00
25430;BME280;13360;48.152;-1.788;2023-04-07T06:44:54;102000.63;;;8.60;100.00
25430;BME280;13360;48.152;-1.788;2023-04-07T06:47:20;102009.81;;;8.65;100.00
25430;BME280;13360;48.152;-1.788;2023-04-07T06:49:45;102019.47;;;8.68;100.00
25430;BME280;13360;48.152;-1.788;2023-04-07T06:52:10;102032.47;;;8.72;100.00
25430;BME280;13360;48.152;-1.788;2023-04-07T06:54:35;102039.19;;;8.76;100.00
25430;BME280;13360;48.152;-1.788;2023-04-07T06:57:00;102051.94;;;8.82;100.00
25430;BME280;13360;48.152;-1.788;2023-04-07T06:59:26;102056.69;;;8.87;100.00
25430;BME280;13360;48.152;-1.788;2023-04-07T07:01:51;102065.00;;;8.92;100.00
25430;BME280;13360;48.152;-1.788;2023-04-07T07:04:16;102082.13;;;8.94;100.00
25430;BME280;13360;48.152;-1.788;2023-04-07T07:06:41;102097.09;;;8.98;100.00
25430;BME280;13360;48.152;-1.788;2023-04-07T07:09:07;102110.94;;;9.03;100.00
25430;BME280;13360;48.152;-1.788;2023-04-07T07:11:32;102125.56;;;9.04;100.00
25430;BME280;13360;48.152;-1.788;2023-04-07T07:13:57;102161.63;;;9.02;100.00
25430;BME280;13360;48.152;-1.788;2023-04-07T07:16:22;102171.13;;;9.11;100.00
25430;BME280;13360;48.152;-1.788;2023-04-07T07:18:48;102193.28;;;9.16;100.00
25430;BME280;13360;48.152;-1.788;2023-04-07T07:21:13;102198.38;;;9.25;100.00
25430;BME280;13360;48.152;-1.788;2023-04-07T07:23:39;102214.16;;;9.29;100.00
25430;BME280;13360;48.152;-1.788;2023-04-07T07:26:04;102239.88;;;9.35;100.00
25430;BME280;13360;48.152;-1.788;2023-04-07T07:28:29;102260.69;;;9.42;100.00
25430;BME280;13360;48.152;-1.788;2023-04-07T07:30:55;102278.72;;;9.50;100.00
25430;BME280;13360;48.152;-1.788;2023-04-07T07:33:20;102297.53;;;9.53;100.00
25430;BME280;13360;48.152;-1.788;2023-04-07T07:35:46;102327.47;;;9.61;100.00
25430;BME280;13360;48.152;-1.788;2023-04-07T07:38:12;102344.16;;;9.71;100.00
25430;BME280;13360;48.152;-1.788;2023-04-07T07:40:37;102368.00;;;9.77;100.00
25430;BME280;13360;48.152;-1.788;2023-04-07T07:43:02;102390.25;;;9.88;100.00
25430;BME280;13360;48.152;-1.788;2023-04-07T07:45:27;102397.84;;;9.97;100.00
25430;BME280;13360;48.152;-1.788;2023-04-07T07:47:53;102429.47;;;10.06;100.00
25430;BME280;13360;48.152;-1.788;2023-04-07T07:50:18;102449.78;;;10.17;100.00
25430;BME280;13360;48.152;-1.788;2023-04-07T07:52:43;102471.50;;;10.25;100.00
25430;BME280;13360;48.152;-1.788;2023-04-07T07:55:08;102484.84;;;10.33;100.00
25430;BME280;13360;48.152;-1.788;2023-04-07T07:57:34;102508.13;;;10.37;100.00
25430;BME280;13360;48.152;-1.788;2023-04-07T08:00:00;102550.81;;;10.47;100.00
25430;BME280;13360;48.152;-1.788;2023-04-07T08:02:25;102587.97;;;10.56;100.00
25430;BME280;13360;48.152;-1.788;2023-04-07T08:04:55;102621.31;;;10.66;100.00
25430;BME280;13360;48.152;-1.788;2023-04-07T08:07:21;102645.09;;;10.84;100.00
25430;BME280;13360;48.152;-1.788;2023-04-07T08:09:46;102683.88;;;11.06;100.00
25430;BME280;13360;48.152;-1.788;2023-04-07T08:12:11;102695.84;;;11.11;100.00
25430;BME280;13360;48.152;-1.788;2023-04-07T08:14:36;102717.78;;;11.18;100.00
25430;BME280;13360;48.152;-1.788;2023-04-07T08:17:01;102739.41;;;11.38;100.00
25430;BME280;13360;48.152;-1.788;2023-04-07T08:19:27;102748.78;;;11.53;100.00
25430;BME280;13360;48.152;-1.788;2023-04-07T08:21:52;102752.25;;;11.66;100.00
25430;BME280;13360;48.152;-1.788;2023-04-07T08:24:17;102754.44;;;11.80;100.00
25430;BME280;13360;48.152;-1.788;2023-04-07T08:26:42;102772.09;;;11.96;100.00
25430;BME280;13360;48.152;-1.788;2023-04-07T08:29:09;102782.94;;;12.19;100.00
25430;BME280;13360;48.152;-1.788;2023-04-07T08:31:34;102759.84;;;12.36;100.00
25430;BME280;13360;48.152;-1.788;2023-04-07T08:34:00;102687.41;;;12.27;100.00
25430;BME280;13360;48.152;-1.788;2023-04-07T08:36:26;102621.81;;;12.33;100.00
25430;BME280;13360;48.152;-1.788;2023-04-07T08:38:52;102632.53;;;12.51;100.00
25430;BME280;13360;48.152;-1.788;2023-04-07T08:41:20;102557.34;;;12.47;100.00
25430;BME280;13360;48.152;-1.788;2023-04-07T08:43:48;102544.72;;;12.62;100.00
25430;BME280;13360;48.152;-1.788;2023-04-07T08:46:14;102554.09;;;12.98;100.00
25430;BME280;13360;48.152;-1.788;2023-04-07T08:48:39;102530.97;;;13.29;100.00
25430;BME280;13360;48.152;-1.788;2023-04-07T08:51:07;102471.94;;;13.59;100.00
25430;BME280;13360;48.152;-1.788;2023-04-07T08:53:39;102397.81;;;13.75;100.00
25430;BME280;13360;48.152;-1.788;2023-04-07T08:56:06;102358.06;;;13.95;100.00
25430;BME280;13360;48.152;-1.788;2023-04-07T08:58:32;102326.34;;;14.16;100.00
25430;BME280;13360;48.152;-1.788;2023-04-07T09:00:59;102291.50;;;14.49;100.00
25430;BME280;13360;48.152;-1.788;2023-04-07T09:03:25;102262.22;;;15.06;100.00
25430;BME280;13360;48.152;-1.788;2023-04-07T09:05:50;102162.66;;;15.27;100.00
25430;BME280;13360;48.152;-1.788;2023-04-07T09:08:16;102111.00;;;15.69;100.00
25430;BME280;13360;48.152;-1.788;2023-04-07T09:10:41;102045.94;;;15.78;100.00
25430;BME280;13360;48.152;-1.788;2023-04-07T09:13:06;102007.56;;;15.75;100.00
25430;BME280;13360;48.152;-1.788;2023-04-07T09:15:31;101988.75;;;16.19;100.00
25430;BME280;13360;48.152;-1.788;2023-04-07T09:17:57;101983.28;;;16.60;100.00
25430;BME280;13360;48.152;-1.788;2023-04-07T09:20:23;101964.03;;;17.04;100.00
25430;BME280;13360;48.152;-1.788;2023-04-07T09:22:49;101951.91;;;17.36;100.00
25430;BME280;13360;48.152;-1.788;2023-04-07T09:27:40;101905.41;;;16.63;100.00
25430;BME280;13360;48.152;-1.788;2023-04-07T09:30:12;101890.16;;;16.88;100.00
25430;BME280;13360;48.152;-1.788;2023-04-07T09:32:38;101890.53;;;17.45;100.00
25430;BME280;13360;48.152;-1.788;2023-04-07T09:35:05;101872.53;;;17.51;100.00
25430;BME280;13360;48.152;-1.788;2023-04-07T09:37:30;101859.66;;;17.28;100.00
25430;BME280;13360;48.152;-1.788;2023-04-07T09:39:55;101843.53;;;16.48;100.00
25430;BME280;13360;48.152;-1.788;2023-04-07T09:42:20;101868.63;;;16.34;100.00
25430;BME280;13360;48.152;-1.788;2023-04-07T09:44:46;101911.78;;;17.32;100.00
25430;BME280;13360;48.152;-1.788;2023-04-07T09:47:11;101903.88;;;18.38;100.00
25430;BME280;13360;48.152;-1.788;2023-04-07T09:49:50;101850.19;;;18.67;100.00
25430;BME280;13360;48.152;-1.788;2023-04-07T09:52:18;101834.69;;;18.21;100.00
25430;BME280;13360;48.152;-1.788;2023-04-07T09:54:45;101825.56;;;18.38;100.00
25430;BME280;13360;48.152;-1.788;2023-04-07T09:57:11;101824.13;;;18.57;100.00
25430;BME280;13360;48.152;-1.788;2023-04-07T09:59:38;101818.91;;;18.65;100.00
25430;BME280;13360;48.152;-1.788;2023-04-07T10:02:04;101824.44;;;18.96;100.00
25430;BME280;13360;48.152;-1.788;2023-04-07T10:04:30;101812.91;;;19.32;100.00
25430;BME280;13360;48.152;-1.788;2023-04-07T10:06:56;101790.16;;;18.99;100.00
25430;BME280;13360;48.152;-1.788;2023-04-07T10:09:22;101784.91;;;17.92;100.00
25430;BME280;13360;48.152;-1.788;2023-04-07T10:11:47;101792.00;;;17.98;100.00
25430;BME280;13360;48.152;-1.788;2023-04-07T10:14:14;101803.34;;;18.41;100.00
25430;BME280;13360;48.152;-1.788;2023-04-07T10:16:40;101791.00;;;18.03;100.00
25430;BME280;13360;48.152;-1.788;2023-04-07T10:19:06;101787.00;;;17.64;100.00
25430;BME280;13360;48.152;-1.788;2023-04-07T10:21:33;101806.00;;;17.31;100.00
25430;BME280;13360;48.152;-1.788;2023-04-07T10:26:43;101772.50;;;16.95;100.00
25430;BME280;13360;48.152;-1.788;2023-04-07T10:29:10;101794.75;;;16.86;100.00
25430;BME280;13360;48.152;-1.788;2023-04-07T10:31:37;101784.13;;;16.61;100.00
25430;BME280;13360;48.152;-1.788;2023-04-07T10:34:03;101780.63;;;16.41;100.00
25430;BME280;13360;48.152;-1.788;2023-04-07T10:36:29;101821.31;;;16.56;100.00
25430;BME280;13360;48.152;-1.788;2023-04-07T10:44:04;101795.91;;;16.16;100.00
25430;BME280;13360;48.152;-1.788;2023-04-07T10:49:11;101744.50;;;16.09;100.00
25430;BME280;13360;48.152;-1.788;2023-04-07T10:51:37;101751.53;;;15.93;100.00
25430;BME280;13360;48.152;-1.788;2023-04-07T10:59:29;101768.94;;;15.71;100.00
25430;BME280;13360;48.152;-1.788;2023-04-07T11:02:40;101735.28;;;15.67;100.00
25430;BME280;13360;48.152;-1.788;2023-04-07T11:04:44;101734.31;;;15.58;100.00
25430;BME280;13360;48.152;-1.788;2023-04-07T11:07:10;101769.75;;;15.71;100.00
25430;BME280;13360;48.152;-1.788;2023-04-07T11:09:35;101754.38;;;15.74;100.00
25430;BME280;13360;48.152;-1.788;2023-04-07T11:12:01;101728.78;;;15.72;100.00
25430;BME280;13360;48.152;-1.788;2023-04-07T11:14:30;101754.59;;;15.77;100.00
25430;BME280;13360;48.152;-1.788;2023-04-07T11:16:55;101787.75;;;15.93;100.00
25430;BME280;13360;48.152;-1.788;2023-04-07T11:19:21;101775.47;;;15.94;100.00
25430;BME280;13360;48.152;-1.788;2023-04-07T11:21:47;101733.06;;;15.83;100.00
25430;BME280;13360;48.152;-1.788;2023-04-07T11:26:56;101732.50;;;15.67;100.00
25430;BME280;13360;48.152;-1.788;2023-04-07T11:29:30;101744.06;;;15.74;100.00
25430;BME280;13360;48.152;-1.788;2023-04-07T11:32:00;101760.69;;;15.79;100.00
25430;BME280;13360;48.152;-1.788;2023-04-07T11:34:32;101728.59;;;15.68;100.00
25430;BME280;13360;48.152;-1.788;2023-04-07T11:36:59;101731.78;;;15.62;100.00
25430;BME280;13360;48.152;-1.788;2023-04-07T11:39:42;101737.63;;;15.60;100.00
25430;BME280;13360;48.152;-1.788;2023-04-07T11:42:10;101745.72;;;15.62;100.00
25430;BME280;13360;48.152;-1.788;2023-04-07T11:44:35;101759.75;;;15.70;100.00
25430;BME280;13360;48.152;-1.788;2023-04-07T11:47:08;101746.66;;;15.71;100.00
25430;BME280;13360;48.152;-1.788;2023-04-07T11:49:34;101760.56;;;15.71;100.00
25430;BME280;13360;48.152;-1.788;2023-04-07T11:52:02;101756.97;;;15.70;100.00
25430;BME280;13360;48.152;-1.788;2023-04-07T11:57:03;101749.78;;;15.83;100.00
25430;BME280;13360;48.152;-1.788;2023-04-07T11:59:29;101718.47;;;15.72;100.00
25430;BME280;13360;48.152;-1.788;2023-04-07T12:01:55;101722.59;;;15.75;100.00
25430;BME280;13360;48.152;-1.788;2023-04-07T12:04:21;101729.41;;;15.69;100.00
25430;BME280;13360;48.152;-1.788;2023-04-07T12:06:46;101725.50;;;15.70;100.00
25430;BME280;13360;48.152;-1.788;2023-04-07T12:09:25;101777.31;;;15.84;100.00
25430;BME280;13360;48.152;-1.788;2023-04-07T12:11:51;101776.19;;;15.85;100.00
25430;BME280;13360;48.152;-1.788;2023-04-07T12:14:17;101718.47;;;15.72;100.00
25430;BME280;13360;48.152;-1.788;2023-04-07T12:16:42;101708.63;;;15.47;100.00
25430;BME280;13360;48.152;-1.788;2023-04-07T12:19:09;101706.66;;;15.48;100.00
25430;BME280;13360;48.152;-1.788;2023-04-07T12:21:34;101733.25;;;15.54;100.00
25430;BME280;13360;48.152;-1.788;2023-04-07T12:23:59;101770.97;;;15.65;100.00
25430;BME280;13360;48.152;-1.788;2023-04-07T12:26:25;101746.84;;;15.74;100.00
25430;BME280;13360;48.152;-1.788;2023-04-07T12:28:50;101714.50;;;15.46;100.00
25430;BME280;13360;48.152;-1.788;2023-04-07T12:31:15;101714.81;;;15.58;100.00
25430;BME280;13360;48.152;-1.788;2023-04-07T12:33:40;101705.78;;;15.66;100.00
25430;BME280;13360;48.152;-1.788;2023-04-07T12:36:06;101713.47;;;15.55;100.00
25430;BME280;13360;48.152;-1.788;2023-04-07T12:38:31;101698.00;;;15.49;100.00
25430;BME280;13360;48.152;-1.788;2023-04-07T12:40:56;101735.41;;;15.62;100.00
25430;BME280;13360;48.152;-1.788;2023-04-07T12:43:31;101688.09;;;15.57;100.00
25430;BME280;13360;48.152;-1.788;2023-04-07T12:45:56;101699.19;;;15.62;100.00
25430;BME280;13360;48.152;-1.788;2023-04-07T12:48:22;101746.44;;;15.67;100.00
25430;BME280;13360;48.152;-1.788;2023-04-07T12:50:48;101720.75;;;15.70;100.00
25430;BME280;13360;48.152;-1.788;2023-04-07T12:53:13;101689.41;;;15.65;100.00
25430;BME280;13360;48.152;-1.788;2023-04-07T12:55:38;101746.53;;;15.76;100.00
25430;BME280;13360;48.152;-1.788;2023-04-07T12:58:03;101708.78;;;15.70;100.00
25430;BME280;13360;48.152;-1.788;2023-04-07T13:00:29;101678.03;;;15.61;100.00
25430;BME280;13360;48.152;-1.788;2023-04-07T13:02:55;101682.25;;;15.59;100.00